Terminal Aerodrome Forecast
Issued by NWS Cleveland, OH

Home | Current Version | Previous Version | Graphics & Text | Print | Product List | Glossary On
Versions: 1 2 3 4 5 6 7 8 9 10 11 12 13 14 15 16 17 18 19 20 21 22 23
891
FTUS41 KCLE 260751 AAA
TAFERI
TAF AMD
KERI 260751Z 2608/2706 06010KT P6SM OVC060
     FM261200 12012KT P6SM OVC100
     FM262000 15012KT P6SM OVC045
      TEMPO 2622/2624 5SM -SHRA BR OVC035
     FM270000 16012KT 5SM -SHRA BR OVC025=

USA.gov is the U.S. government's official web portal to all federal, state and local government web resources and services.